createdAt,value
2022-09-10T00:01:15.330Z,91.7
2022-09-10T00:07:15.367Z,90.8
2022-09-10T00:13:15.362Z,91.2
2022-09-10T00:19:15.352Z,91.2
2022-09-10T00:25:15.386Z,91.2
2022-09-10T00:31:15.450Z,92.5
2022-09-10T00:37:15.344Z,93.4
2022-09-10T00:43:15.372Z,92
2022-09-10T00:49:15.368Z,92.5
2022-09-10T00:55:15.349Z,91.9
2022-09-10T01:01:15.393Z,92.5
2022-09-10T01:07:15.339Z,92.7
2022-09-10T01:13:15.337Z,91.8
2022-09-10T01:19:15.364Z,91.4
2022-09-10T01:29:15.363Z,92.2
2022-09-10T01:35:15.378Z,95.7
2022-09-10T01:41:15.360Z,98
2022-09-10T01:47:15.360Z,97.3
2022-09-10T01:53:15.369Z,97.5
2022-09-10T01:59:15.365Z,98.4
2022-09-10T02:05:15.348Z,96.5
2022-09-10T02:11:15.382Z,97.5
2022-09-10T02:17:15.378Z,96.4
2022-09-10T02:23:15.365Z,97.6
2022-09-10T02:29:15.376Z,97.6
2022-09-10T02:35:15.354Z,98.2
2022-09-10T02:41:15.369Z,97.2
2022-09-10T02:47:15.370Z,98.3
2022-09-10T02:53:15.357Z,98.5
2022-09-10T02:59:15.366Z,99.1
2022-09-10T03:05:15.526Z,99
2022-09-10T03:11:15.444Z,98.4
2022-09-10T03:17:15.378Z,98.7
2022-09-10T03:23:15.413Z,97.6
2022-09-10T03:29:15.474Z,97.3
2022-09-10T03:35:15.453Z,97.1
2022-09-10T03:41:15.386Z,97.9
2022-09-10T03:47:15.357Z,99.6
2022-09-10T03:53:15.361Z,98.3
2022-09-10T03:59:15.408Z,98.2
2022-09-10T04:05:15.409Z,98.2
2022-09-10T04:11:15.380Z,99.6
2022-09-10T04:17:15.400Z,99.4
2022-09-10T04:23:15.373Z,98.6
2022-09-10T04:29:15.386Z,98.5
2022-09-10T04:35:15.429Z,99.5
2022-09-10T04:41:15.387Z,97.2
2022-09-10T04:47:15.367Z,98.5
2022-09-10T04:53:15.401Z,96.6
2022-09-10T04:59:15.360Z,97
2022-09-10T05:05:15.390Z,97.5
2022-09-10T05:11:15.390Z,97.5
2022-09-10T05:17:15.376Z,99.2
2022-09-10T05:23:15.387Z,98.7
2022-09-10T05:29:15.398Z,98.4
2022-09-10T05:35:15.373Z,98.7
2022-09-10T05:41:15.380Z,99.4
2022-09-10T05:47:15.398Z,97.7
2022-09-10T05:53:15.387Z,98.2
2022-09-10T05:59:15.401Z,96.6
2022-09-10T06:05:15.399Z,96.4
2022-09-10T06:11:15.375Z,95.4
2022-09-10T06:17:15.385Z,95.4
2022-09-10T06:23:15.402Z,95.4
2022-09-10T06:29:15.377Z,94.7
2022-09-10T06:35:15.392Z,91.8
2022-09-10T06:41:15.411Z,89.3
2022-09-10T06:48:12.751Z,90.7
2022-09-10T06:53:15.388Z,90.7
2022-09-10T06:59:15.402Z,87.3
2022-09-10T07:05:15.394Z,86.3
2022-09-10T07:11:15.402Z,88.4
2022-09-10T07:17:15.437Z,88.3
2022-09-10T07:23:15.417Z,89.6
2022-09-10T07:29:15.397Z,90
2022-09-10T07:35:15.414Z,88.2
2022-09-10T07:41:15.421Z,88.8
2022-09-10T07:47:15.373Z,88.8
2022-09-10T07:53:15.523Z,89.4
2022-09-10T07:59:15.515Z,88.3
2022-09-10T08:05:15.549Z,84.3
2022-09-10T08:11:15.445Z,84.6
2022-09-10T08:17:15.397Z,81.9
2022-09-10T08:23:15.382Z,84.3
2022-09-10T08:29:15.418Z,81.5
2022-09-10T08:35:15.420Z,77
2022-09-10T08:41:15.413Z,70.1
2022-09-10T08:47:15.442Z,62.8
2022-09-10T08:53:15.395Z,63.7
2022-09-10T08:59:15.435Z,65.6
2022-09-10T09:05:15.459Z,66.7
2022-09-10T09:11:15.404Z,72.1
2022-09-10T09:17:15.427Z,75.5
2022-09-10T09:23:15.429Z,73.8
2022-09-10T09:29:15.398Z,72.6
2022-09-10T09:35:15.419Z,76.1
2022-09-10T09:41:15.461Z,78.2
2022-09-10T09:47:15.426Z,77.7
2022-09-10T09:53:15.442Z,76.5
2022-09-10T09:59:15.451Z,75.9
2022-09-10T10:05:15.448Z,75.9
2022-09-10T10:11:15.413Z,74
2022-09-10T10:17:15.451Z,68.5
2022-09-10T10:23:15.441Z,69.2
2022-09-10T10:29:15.445Z,68.5
2022-09-10T10:35:15.469Z,69.9
2022-09-10T10:41:15.427Z,70.2
2022-09-10T10:47:15.425Z,73.2
2022-09-10T10:53:15.494Z,71.9
2022-09-10T10:59:15.423Z,68.9
2022-09-10T11:05:15.429Z,70.7
2022-09-10T11:11:15.474Z,71.5
2022-09-10T11:17:15.443Z,71.8
2022-09-10T11:23:15.450Z,71.2
2022-09-10T11:29:15.468Z,71.4
2022-09-10T11:35:15.428Z,70
2022-09-10T11:41:15.458Z,68.3
2022-09-10T11:47:15.477Z,68.5
2022-09-10T11:53:15.447Z,68
2022-09-10T11:59:15.455Z,67.8
2022-09-10T12:05:15.478Z,67.4
2022-09-10T12:11:15.479Z,70
2022-09-10T12:17:15.432Z,74.5
2022-09-10T12:23:15.459Z,73.4
2022-09-10T12:29:15.461Z,75.1
2022-09-10T12:35:15.528Z,76
2022-09-10T12:41:15.487Z,73.8
2022-09-10T12:47:15.455Z,74.3
2022-09-10T12:53:15.454Z,74.7
2022-09-10T12:59:15.496Z,72.5
2022-09-10T13:05:15.461Z,72.3
2022-09-10T13:11:15.461Z,76.4
2022-09-10T13:17:15.493Z,73
2022-09-10T13:23:15.460Z,70.4
2022-09-10T13:29:15.457Z,68
2022-09-10T13:35:15.489Z,75.9
2022-09-10T13:41:15.477Z,79.9
2022-09-10T13:47:15.456Z,84.5
2022-09-10T13:53:15.494Z,87.9
2022-09-10T13:59:15.495Z,90.9
2022-09-10T14:05:15.479Z,93.8
2022-09-10T14:11:15.529Z,94.6
2022-09-10T14:17:15.472Z,95.5
2022-09-10T14:23:15.473Z,94.2
2022-09-10T14:29:15.511Z,93.2
2022-09-10T14:35:15.489Z,94
2022-09-10T14:41:15.481Z,94.6
2022-09-10T14:47:15.512Z,95.3
2022-09-10T14:53:15.475Z,94.4
2022-09-10T14:59:15.516Z,94.2
2022-09-10T15:05:15.575Z,91.2
2022-09-10T15:11:15.482Z,92.4
2022-09-10T15:17:15.495Z,94.4
2022-09-10T15:23:15.519Z,92.1
2022-09-10T15:29:15.508Z,92
2022-09-10T15:35:15.484Z,91.6
2022-09-10T15:41:15.534Z,90
2022-09-10T15:47:15.481Z,92.5
2022-09-10T15:53:15.483Z,92.1
2022-09-10T15:59:15.544Z,91.4
2022-09-10T16:05:15.507Z,91.2
2022-09-10T16:11:15.494Z,92.6
2022-09-10T16:17:15.513Z,95.5
2022-09-10T16:23:15.499Z,94.4
2022-09-10T16:29:15.514Z,95.6
2022-09-10T16:35:15.516Z,99.8
2022-09-10T16:41:15.509Z,100
2022-09-10T16:47:15.483Z,100
2022-09-10T16:53:15.547Z,100
2022-09-10T16:59:15.617Z,100
2022-09-10T17:05:15.511Z,100
2022-09-10T17:11:15.561Z,100
2022-09-10T17:17:15.520Z,100
2022-09-10T17:23:15.522Z,100
2022-09-10T17:29:15.592Z,100
2022-09-10T17:35:15.510Z,100
2022-09-10T17:41:15.534Z,100
2022-09-10T17:47:15.532Z,100
2022-09-10T17:53:15.498Z,100
2022-09-10T17:59:15.521Z,100
2022-09-10T18:05:15.549Z,100
2022-09-10T18:11:15.508Z,100
2022-09-10T18:17:15.520Z,100
2022-09-10T18:23:15.547Z,100
2022-09-10T18:29:15.516Z,100
2022-09-10T18:35:15.507Z,100
2022-09-10T18:41:15.571Z,100
2022-09-10T18:47:34.265Z,100
2022-09-10T18:53:15.506Z,100
2022-09-10T18:59:15.557Z,100
2022-09-10T19:05:15.530Z,100
2022-09-10T19:11:15.532Z,100
2022-09-10T19:17:15.540Z,100
2022-09-10T19:23:19.550Z,100
2022-09-10T19:29:15.533Z,100
2022-09-10T19:35:15.539Z,100
2022-09-10T19:41:15.566Z,100
2022-09-10T19:47:15.515Z,100
2022-09-10T19:53:15.559Z,100
2022-09-10T19:59:15.555Z,100
2022-09-10T20:05:15.529Z,100
2022-09-10T20:11:15.568Z,100
2022-09-10T20:17:15.519Z,100
2022-09-10T20:23:15.622Z,100
2022-09-10T20:29:15.569Z,100
2022-09-10T20:35:15.589Z,100
2022-09-10T20:41:15.535Z,100
2022-09-10T20:47:15.539Z,100
2022-09-10T20:53:15.516Z,100
2022-09-10T20:59:15.607Z,100
2022-09-10T21:05:15.567Z,100
2022-09-10T21:11:15.882Z,100
2022-09-10T21:17:15.538Z,100
2022-09-10T21:23:15.546Z,100
2022-09-10T21:29:15.536Z,100
2022-09-10T21:35:15.543Z,100
2022-09-10T21:41:15.556Z,100
2022-09-10T21:47:15.531Z,100
2022-09-10T21:53:15.521Z,100
2022-09-10T21:59:15.561Z,100
2022-09-10T22:05:15.537Z,100
2022-09-10T22:11:21.903Z,100
2022-09-10T22:17:15.558Z,100
2022-09-10T22:23:15.548Z,100
2022-09-10T22:29:15.569Z,100
2022-09-10T22:35:15.576Z,100
2022-09-10T22:41:15.568Z,100
2022-09-10T22:47:15.551Z,100
2022-09-10T22:53:15.562Z,100
2022-09-10T22:59:15.554Z,100
2022-09-10T23:05:15.543Z,100
2022-09-10T23:11:19.709Z,100
2022-09-10T23:17:18.510Z,100
2022-09-10T23:23:15.548Z,100
2022-09-10T23:29:15.571Z,100
2022-09-10T23:35:15.539Z,100
2022-09-10T23:41:15.554Z,100
2022-09-10T23:47:15.569Z,100
2022-09-10T23:53:15.552Z,100
2022-09-10T23:59:15.535Z,100
